createdAt,value
2022-12-18T00:01:19.502Z,40.05
2022-12-18T00:03:47.673Z,41.33
2022-12-18T00:06:15.558Z,37.20
2022-12-18T00:08:43.728Z,51.42
2022-12-18T00:11:15.179Z,46.88
2022-12-18T00:13:42.981Z,45.45
2022-12-18T00:16:12.580Z,55.72
2022-12-18T00:18:40.729Z,49.42
2022-12-18T00:21:10.374Z,40.90
2022-12-18T00:23:39.009Z,44.03
2022-12-18T00:26:08.613Z,56.67
2022-12-18T00:28:35.632Z,50.60
2022-12-18T00:31:04.097Z,51.78
2022-12-18T00:33:31.767Z,40.45
2022-12-18T00:36:04.091Z,36.03
2022-12-18T00:38:33.324Z,42.13
2022-12-18T00:41:00.903Z,53.83
2022-12-18T00:43:28.828Z,44.63
2022-12-18T00:45:56.317Z,54.17
2022-12-18T00:48:24.041Z,39.47
2022-12-18T00:50:51.970Z,66.22
2022-12-18T00:53:19.313Z,42.75
2022-12-18T00:55:46.807Z,49.92
2022-12-18T00:58:15.511Z,40.90
2022-12-18T01:00:43.421Z,37.72
2022-12-18T01:03:15.284Z,44.60
2022-12-18T01:05:44.594Z,45.17
2022-12-18T01:08:12.382Z,49.90
2022-12-18T01:10:42.203Z,54.15
2022-12-18T01:13:09.419Z,43.28
2022-12-18T01:15:37.266Z,44.22
2022-12-18T01:18:07.338Z,39.13
2022-12-18T01:20:34.396Z,45.45
2022-12-18T01:23:01.421Z,41.33
2022-12-18T01:25:28.562Z,41.60
2022-12-18T01:27:55.624Z,44.42
2022-12-18T01:30:22.620Z,46.72
2022-12-18T01:32:49.711Z,61.58
2022-12-18T01:35:17.848Z,47.88
2022-12-18T01:37:44.842Z,45.58
2022-12-18T01:40:12.181Z,44.05
2022-12-18T01:42:40.089Z,47.90
2022-12-18T01:45:25.156Z,44.47
2022-12-18T01:47:55.515Z,30.20
2022-12-18T01:50:40.977Z,44.10
2022-12-18T01:53:24.910Z,40.95
2022-12-18T01:55:55.955Z,43.65
2022-12-18T01:58:50.160Z,45.60
2022-12-18T02:01:17.524Z,43.38
2022-12-18T02:03:46.058Z,45.67
2022-12-18T02:06:13.153Z,42.88
2022-12-18T02:08:57.616Z,49.88
2022-12-18T02:11:47.967Z,28.80
2022-12-18T02:14:20.237Z,45.40
2022-12-18T02:16:53.374Z,45.15
2022-12-18T02:19:42.255Z,42.15
2022-12-18T02:22:25.493Z,39.95
2022-12-18T02:25:08.774Z,51.95
2022-12-18T02:27:38.256Z,44.40
2022-12-18T02:30:07.339Z,43.75
2022-12-18T02:32:41.245Z,40.88
2022-12-18T02:35:14.899Z,44.13
2022-12-18T02:37:46.406Z,47.63
2022-12-18T02:40:16.698Z,38.55
2022-12-18T02:42:44.148Z,39.75
2022-12-18T02:45:13.723Z,37.45
2022-12-18T02:47:44.708Z,38.97
2022-12-18T02:50:18.403Z,40.88
2022-12-18T02:52:56.162Z,38.47
2022-12-18T02:55:58.969Z,45.03
2022-12-18T02:58:59.631Z,42.33
2022-12-18T03:01:42.453Z,38.72
2022-12-18T03:04:33.690Z,46.15
2022-12-18T03:07:06.376Z,38.05
2022-12-18T03:09:37.856Z,41.97
2022-12-18T03:12:26.887Z,38.33
2022-12-18T03:15:05.606Z,39.38
2022-12-18T03:17:34.768Z,39.22
2022-12-18T03:20:11.148Z,42.55
2022-12-18T03:22:41.280Z,46.15
2022-12-18T03:25:13.761Z,64.07
2022-12-18T03:27:47.610Z,39.88
2022-12-18T03:30:17.796Z,39.60
2022-12-18T03:33:09.095Z,41.30
2022-12-18T03:35:42.742Z,38.53
2022-12-18T03:38:12.733Z,42.85
2022-12-18T03:40:44.396Z,40.80
2022-12-18T03:43:19.867Z,43.30
2022-12-18T03:45:55.438Z,45.47
2022-12-18T03:48:32.530Z,41.35
2022-12-18T03:51:37.446Z,38.55
2022-12-18T03:54:07.839Z,57.20
2022-12-18T03:56:52.084Z,42.05
2022-12-18T03:59:22.194Z,41.90
2022-12-18T04:01:53.685Z,43.20
2022-12-18T04:04:24.404Z,38.15
2022-12-18T04:06:53.366Z,42.90
2022-12-18T04:09:21.851Z,44.58
2022-12-18T04:11:49.819Z,42.00
2022-12-18T04:14:18.303Z,42.55
2022-12-18T04:16:48.855Z,43.13
2022-12-18T04:19:18.278Z,45.20
2022-12-18T04:21:48.610Z,44.67
2022-12-18T04:24:16.183Z,50.13
2022-12-18T04:26:53.004Z,47.40
2022-12-18T04:29:25.372Z,41.20
2022-12-18T04:31:52.780Z,42.58
2022-12-18T04:34:21.238Z,38.33
2022-12-18T04:36:51.421Z,41.58
2022-12-18T04:39:18.826Z,40.75
2022-12-18T04:41:48.191Z,41.85
2022-12-18T04:44:15.271Z,42.97
2022-12-18T04:46:42.514Z,41.90
2022-12-18T04:49:11.528Z,37.67
2022-12-18T04:51:38.798Z,44.15
2022-12-18T04:54:06.067Z,44.60
2022-12-18T04:56:33.462Z,41.33
2022-12-18T04:59:01.191Z,40.90
2022-12-18T05:01:34.048Z,43.28
2022-12-18T05:04:02.836Z,32.20
2022-12-18T05:06:30.438Z,55.08
2022-12-18T05:08:58.004Z,44.13
2022-12-18T05:11:25.159Z,40.25
2022-12-18T05:13:52.188Z,39.00
2022-12-18T05:16:19.416Z,47.47
2022-12-18T05:18:46.703Z,41.90
2022-12-18T05:21:13.739Z,43.05
2022-12-18T05:23:41.275Z,42.13
2022-12-18T05:26:18.336Z,46.78
2022-12-18T05:28:46.082Z,43.40
2022-12-18T05:31:13.400Z,41.42
2022-12-18T05:33:40.928Z,46.42
2022-12-18T05:36:10.010Z,44.35
2022-12-18T05:38:38.700Z,40.78
2022-12-18T05:41:06.588Z,43.72
2022-12-18T05:43:37.209Z,46.92
2022-12-18T05:46:06.618Z,44.03
2022-12-18T05:48:34.012Z,44.92
2022-12-18T05:51:15.591Z,42.80
2022-12-18T05:53:43.837Z,40.45
2022-12-18T05:56:15.893Z,42.20
2022-12-18T05:58:43.956Z,41.20
2022-12-18T06:01:17.809Z,43.70
2022-12-18T06:03:46.342Z,28.73
2022-12-18T06:06:17.914Z,37.70
2022-12-18T06:08:46.677Z,39.30
2022-12-18T06:11:16.992Z,41.42
2022-12-18T06:13:44.095Z,43.50
2022-12-18T06:16:11.676Z,39.97
2022-12-18T06:18:39.101Z,42.92
2022-12-18T06:21:07.831Z,39.50
2022-12-18T06:23:35.576Z,45.00
2022-12-18T06:26:11.627Z,44.05
2022-12-18T06:28:39.849Z,41.65
2022-12-18T06:31:08.349Z,38.03
2022-12-18T06:33:37.014Z,42.20
2022-12-18T06:36:09.201Z,40.92
2022-12-18T06:38:39.883Z,37.40
2022-12-18T06:41:09.110Z,42.03
2022-12-18T06:43:37.159Z,39.55
2022-12-18T06:46:06.005Z,37.85
2022-12-18T06:48:34.112Z,41.20
2022-12-18T06:51:01.419Z,36.58
2022-12-18T06:53:29.032Z,40.35
2022-12-18T06:56:09.779Z,38.45
2022-12-18T06:58:37.815Z,39.50
2022-12-18T07:01:07.028Z,41.08
2022-12-18T07:03:34.513Z,39.85
2022-12-18T07:06:01.669Z,39.95
2022-12-18T07:08:30.423Z,41.78
2022-12-18T07:10:57.463Z,40.25
2022-12-18T07:13:24.654Z,40.65
2022-12-18T07:15:51.696Z,42.10
2022-12-18T07:18:18.787Z,38.47
2022-12-18T07:20:46.445Z,44.50
2022-12-18T07:23:14.822Z,42.83
2022-12-18T07:25:41.852Z,40.80
2022-12-18T07:28:12.876Z,41.65
2022-12-18T07:30:44.296Z,45.72
2022-12-18T07:33:11.516Z,42.05
2022-12-18T07:35:38.718Z,47.80
2022-12-18T07:38:06.049Z,39.97
2022-12-18T07:40:33.077Z,42.08
2022-12-18T07:43:00.358Z,43.70
2022-12-18T07:45:27.467Z,42.90
2022-12-18T07:47:54.586Z,45.38
2022-12-18T07:50:21.730Z,42.35
2022-12-18T07:52:48.862Z,46.42
2022-12-18T07:55:16.030Z,44.40
2022-12-18T07:57:51.953Z,44.55
2022-12-18T08:00:21.473Z,44.80
2022-12-18T08:02:48.933Z,42.20
2022-12-18T08:05:16.303Z,42.58
2022-12-18T08:07:43.380Z,46.50
2022-12-18T08:10:10.836Z,44.65
2022-12-18T08:12:37.843Z,45.25
2022-12-18T08:15:05.342Z,44.40
2022-12-18T08:17:33.310Z,47.45
2022-12-18T08:20:01.023Z,46.47
2022-12-18T08:22:28.073Z,50.63
2022-12-18T08:24:56.106Z,46.83
2022-12-18T08:27:30.650Z,43.65
2022-12-18T08:32:27.355Z,44.08
2022-12-18T08:34:54.850Z,44.60
2022-12-18T08:37:22.233Z,50.50
2022-12-18T08:39:49.343Z,48.70
2022-12-18T08:42:36.377Z,45.63
2022-12-18T08:45:05.238Z,45.55
2022-12-18T08:47:32.612Z,51.10
2022-12-18T08:49:59.639Z,48.20
2022-12-18T08:52:26.829Z,47.05
2022-12-18T08:54:53.843Z,43.72
2022-12-18T08:57:21.047Z,49.80
2022-12-18T08:59:49.319Z,46.83
2022-12-18T09:02:17.052Z,46.30
2022-12-18T09:04:46.401Z,42.90
2022-12-18T09:07:13.953Z,45.55
2022-12-18T09:09:41.172Z,42.22
2022-12-18T09:12:08.311Z,50.55
2022-12-18T09:14:35.422Z,55.63
2022-12-18T09:17:02.616Z,50.92
2022-12-18T09:19:29.716Z,46.95
2022-12-18T09:21:56.839Z,49.50
2022-12-18T09:24:23.908Z,50.47
2022-12-18T09:26:57.888Z,46.30
2022-12-18T09:29:25.879Z,48.65
2022-12-18T09:31:52.921Z,46.45
2022-12-18T09:34:22.053Z,44.10
2022-12-18T09:36:50.154Z,54.15
2022-12-18T09:39:17.431Z,45.55
2022-12-18T09:41:51.000Z,50.78
2022-12-18T09:44:45.501Z,49.75
2022-12-18T09:47:15.869Z,49.97
2022-12-18T09:49:47.000Z,47.75
2022-12-18T09:52:34.997Z,48.95
2022-12-18T09:55:12.405Z,48.72
2022-12-18T09:57:46.376Z,44.83
2022-12-18T10:00:20.269Z,34.65
2022-12-18T10:02:48.505Z,48.08
2022-12-18T10:05:21.821Z,43.60
2022-12-18T10:07:55.801Z,42.17
2022-12-18T10:10:28.549Z,44.97
2022-12-18T10:13:06.311Z,40.65
2022-12-18T10:15:53.243Z,37.97
2022-12-18T10:18:22.248Z,42.80
2022-12-18T10:20:54.400Z,41.42
2022-12-18T10:23:27.449Z,46.22
2022-12-18T10:26:03.416Z,46.92
2022-12-18T10:28:33.751Z,42.90
2022-12-18T10:31:01.090Z,40.53
2022-12-18T10:33:32.938Z,46.75
2022-12-18T10:36:01.181Z,44.85
2022-12-18T10:38:31.647Z,53.15
2022-12-18T10:41:01.617Z,47.75
2022-12-18T10:43:33.108Z,44.22
2022-12-18T10:46:01.367Z,49.67
2022-12-18T10:48:29.618Z,43.95
2022-12-18T10:51:13.702Z,43.70
2022-12-18T10:53:43.792Z,36.92
2022-12-18T10:56:11.229Z,49.78
2022-12-18T10:58:40.525Z,51.08
2022-12-18T11:01:11.056Z,53.78
2022-12-18T11:04:00.312Z,49.95
2022-12-18T11:06:29.850Z,54.60
2022-12-18T11:08:59.514Z,55.13
2022-12-18T11:11:27.403Z,57.95
2022-12-18T11:14:03.715Z,48.92
2022-12-18T11:16:36.344Z,50.13
2022-12-18T11:19:34.661Z,57.75
2022-12-18T11:22:18.160Z,51.90
2022-12-18T11:25:30.012Z,56.15
2022-12-18T11:27:59.133Z,59.10
2022-12-18T11:30:27.871Z,58.20
2022-12-18T11:32:59.682Z,61.47
2022-12-18T11:36:00.791Z,65.25
2022-12-18T11:38:31.982Z,58.70
2022-12-18T11:41:13.539Z,56.70
2022-12-18T11:43:48.787Z,56.40
2022-12-18T11:46:24.172Z,62.80
2022-12-18T11:48:57.589Z,53.78
2022-12-18T11:51:34.569Z,67.22
2022-12-18T11:54:03.127Z,60.05
2022-12-18T11:56:36.702Z,58.53
2022-12-18T11:59:10.434Z,53.30
2022-12-18T12:01:59.020Z,47.90
2022-12-18T12:04:36.335Z,59.97
2022-12-18T12:07:33.752Z,64.40
2022-12-18T12:10:17.579Z,59.40
2022-12-18T12:13:03.609Z,62.38
2022-12-18T12:15:30.676Z,56.28
2022-12-18T12:18:04.757Z,61.10
2022-12-18T12:20:37.755Z,74.88
2022-12-18T12:23:27.705Z,60.15
2022-12-18T12:26:20.245Z,66.93
2022-12-18T12:29:27.244Z,60.80
2022-12-18T12:31:55.563Z,59.88
2022-12-18T12:34:29.750Z,73.22
2022-12-18T12:37:03.292Z,71.47
2022-12-18T12:39:38.367Z,68.93
2022-12-18T12:42:34.072Z,68.47
2022-12-18T12:45:05.956Z,66.22
2022-12-18T12:47:38.110Z,61.25
2022-12-18T12:50:14.242Z,65.75
2022-12-18T12:52:47.683Z,63.42
2022-12-18T12:55:22.179Z,69.22
2022-12-18T12:58:19.346Z,67.82
2022-12-18T13:01:09.689Z,71.07
2022-12-18T13:03:55.667Z,61.92
2022-12-18T13:06:44.960Z,69.63
2022-12-18T13:09:13.875Z,77.97
2022-12-18T13:12:02.356Z,71.15
2022-12-18T13:14:33.628Z,68.78
2022-12-18T13:17:21.312Z,73.18
2022-12-18T13:19:53.635Z,70.80
2022-12-18T13:22:24.436Z,73.95
2022-12-18T13:24:52.179Z,67.45
2022-12-18T13:27:46.929Z,64.13
2022-12-18T13:33:18.614Z,71.45
2022-12-18T13:35:49.158Z,74.50
2022-12-18T13:38:32.435Z,71.03
2022-12-18T13:41:22.496Z,76.00
2022-12-18T13:43:52.518Z,70.90
2022-12-18T13:46:31.079Z,74.03
2022-12-18T13:49:02.735Z,69.68
2022-12-18T13:51:32.874Z,62.78
2022-12-18T13:54:02.715Z,63.90
2022-12-18T13:56:32.957Z,59.50
2022-12-18T13:59:18.300Z,56.08
2022-12-18T14:01:50.168Z,59.50
2022-12-18T14:04:23.398Z,59.13
2022-12-18T14:06:54.190Z,55.63
2022-12-18T14:09:27.645Z,57.13
2022-12-18T14:12:15.612Z,50.90
2022-12-18T14:14:48.204Z,59.05
2022-12-18T14:17:17.055Z,61.10
2022-12-18T14:19:51.586Z,57.42
2022-12-18T14:22:22.966Z,54.38
2022-12-18T14:25:14.373Z,56.33
2022-12-18T14:27:48.629Z,54.47
2022-12-18T14:30:36.017Z,61.78
2022-12-18T14:33:04.551Z,70.60
2022-12-18T14:35:33.469Z,69.97
2022-12-18T14:38:27.988Z,67.30
2022-12-18T14:40:59.432Z,56.80
2022-12-18T14:43:28.774Z,68.30
2022-12-18T14:45:56.635Z,62.20
2022-12-18T14:48:36.005Z,67.78
2022-12-18T14:51:21.759Z,61.33
2022-12-18T14:53:55.677Z,64.35
2022-12-18T14:56:27.327Z,58.90
2022-12-18T14:58:59.054Z,62.58
2022-12-18T15:01:30.100Z,62.97
2022-12-18T15:03:58.886Z,63.30
2022-12-18T15:06:31.594Z,60.28
2022-12-18T15:09:01.027Z,58.50
2022-12-18T15:11:36.841Z,64.68
2022-12-18T15:14:33.841Z,62.50
2022-12-18T15:17:03.156Z,62.45
2022-12-18T15:19:42.125Z,60.58
2022-12-18T15:22:40.775Z,61.85
2022-12-18T15:25:33.671Z,58.45
2022-12-18T15:28:01.164Z,67.28
2022-12-18T15:30:28.291Z,72.65
2022-12-18T15:33:25.942Z,71.35
2022-12-18T15:36:02.298Z,73.43
2022-12-18T15:38:29.875Z,64.93
2022-12-18T15:40:57.179Z,69.55
2022-12-18T15:43:42.416Z,74.45
2022-12-18T15:46:15.147Z,65.35
2022-12-18T15:48:44.350Z,73.38
2022-12-18T15:51:22.774Z,67.90
2022-12-18T15:53:56.393Z,69.15
2022-12-18T15:56:44.181Z,72.05
2022-12-18T15:59:14.745Z,66.80
2022-12-18T16:01:44.552Z,63.55
2022-12-18T16:04:15.644Z,64.22
2022-12-18T16:07:12.754Z,67.15
2022-12-18T16:09:30.585Z,67.93
2022-12-18T16:11:57.778Z,70.47
2022-12-18T16:14:27.815Z,73.78
2022-12-18T16:16:58.169Z,69.05
2022-12-18T16:19:26.256Z,77.93
2022-12-18T16:21:56.084Z,68.28
2022-12-18T16:24:27.411Z,78.43
2022-12-18T16:26:56.731Z,65.53
2022-12-18T16:29:28.595Z,67.85
2022-12-18T16:31:58.957Z,66.80
2022-12-18T16:34:29.794Z,65.55
2022-12-18T16:37:04.912Z,69.95
2022-12-18T16:39:35.570Z,69.22
2022-12-18T16:42:06.409Z,70.70
2022-12-18T16:44:36.606Z,69.35
2022-12-18T16:47:05.201Z,69.22
2022-12-18T16:49:34.375Z,66.28
2022-12-18T16:52:01.817Z,68.82
2022-12-18T16:54:33.702Z,73.32
2022-12-18T16:57:01.549Z,66.60
2022-12-18T16:59:29.904Z,66.85
2022-12-18T17:01:58.435Z,68.57
2022-12-18T17:04:26.264Z,71.22
2022-12-18T17:06:54.352Z,69.05
2022-12-18T17:09:35.536Z,69.15
2022-12-18T17:12:04.771Z,66.93
2022-12-18T17:14:33.338Z,61.13
2022-12-18T17:17:27.069Z,65.85
2022-12-18T17:19:48.763Z,64.15
2022-12-18T17:22:16.361Z,61.78
2022-12-18T17:24:43.544Z,65.63
2022-12-18T17:27:15.524Z,65.47
2022-12-18T17:29:48.298Z,66.10
2022-12-18T17:32:20.502Z,61.67
2022-12-18T17:34:49.813Z,62.92
2022-12-18T17:37:18.393Z,60.70
2022-12-18T17:39:47.247Z,61.55
2022-12-18T17:42:17.633Z,70.10
2022-12-18T17:44:47.795Z,64.57
2022-12-18T17:47:17.748Z,62.47
2022-12-18T17:49:46.713Z,65.45
2022-12-18T17:52:15.800Z,64.00
2022-12-18T17:54:46.242Z,66.70
2022-12-18T17:57:17.134Z,68.32
2022-12-18T17:59:45.989Z,67.07
2022-12-18T18:02:13.216Z,64.43
2022-12-18T18:04:42.182Z,64.95
2022-12-18T18:07:10.223Z,62.28
2022-12-18T18:09:38.047Z,62.25
2022-12-18T18:12:25.840Z,66.47
2022-12-18T18:14:53.161Z,65.07
2022-12-18T18:17:20.722Z,84.30
2022-12-18T18:19:49.587Z,71.97
2022-12-18T18:22:17.373Z,61.65
2022-12-18T18:24:46.919Z,61.13
2022-12-18T18:27:14.202Z,60.65
2022-12-18T18:29:41.519Z,64.35
2022-12-18T18:32:08.599Z,82.95
2022-12-18T18:34:36.384Z,74.20
2022-12-18T18:37:03.608Z,63.20
2022-12-18T18:39:31.163Z,64.38
2022-12-18T18:42:00.413Z,63.30
2022-12-18T18:44:27.549Z,64.38
2022-12-18T18:46:56.524Z,63.50
2022-12-18T18:49:27.137Z,68.57
2022-12-18T18:51:56.157Z,61.70
2022-12-18T18:54:24.699Z,69.53
2022-12-18T18:59:39.480Z,73.53
2022-12-18T19:02:09.121Z,68.85
2022-12-18T19:04:37.813Z,69.40
2022-12-18T19:07:12.293Z,70.65
2022-12-18T19:09:41.886Z,69.45
2022-12-18T19:12:29.854Z,75.30
2022-12-18T19:14:57.051Z,69.60
2022-12-18T19:17:29.757Z,74.32
2022-12-18T19:19:58.427Z,67.25
2022-12-18T19:22:25.701Z,68.97
2022-12-18T19:24:52.806Z,69.78
2022-12-18T19:27:19.986Z,72.18
2022-12-18T19:29:48.703Z,65.07
2022-12-18T19:32:15.958Z,69.88
2022-12-18T19:34:43.417Z,63.35
2022-12-18T19:37:13.247Z,65.00
2022-12-18T19:39:40.551Z,68.68
2022-12-18T19:42:07.591Z,85.68
2022-12-18T19:44:34.824Z,79.95
2022-12-18T19:47:01.863Z,87.10
2022-12-18T19:49:30.399Z,87.25
2022-12-18T19:51:57.608Z,92.68
2022-12-18T19:54:26.311Z,91.00
2022-12-18T19:56:54.163Z,96.65
2022-12-18T19:59:21.238Z,91.85
2022-12-18T20:01:48.554Z,83.03
2022-12-18T20:04:16.075Z,82.22
2022-12-18T20:06:49.994Z,72.28
2022-12-18T20:09:17.721Z,67.95
2022-12-18T20:11:45.388Z,70.60
2022-12-18T20:14:14.494Z,71.95
2022-12-18T20:16:46.096Z,75.40
2022-12-18T20:19:14.347Z,65.75
2022-12-18T20:21:42.979Z,73.55
2022-12-18T20:24:10.645Z,70.35
2022-12-18T20:26:38.361Z,63.38
2022-12-18T20:29:05.419Z,69.55
2022-12-18T20:31:33.068Z,104.80
2022-12-18T20:34:01.752Z,90.03
2022-12-18T20:36:32.826Z,88.40
2022-12-18T20:39:02.698Z,86.72
2022-12-18T20:41:38.549Z,85.30
2022-12-18T20:44:09.874Z,75.18
2022-12-18T20:46:53.296Z,69.05
2022-12-18T20:49:20.665Z,76.20
2022-12-18T20:51:51.445Z,73.93
2022-12-18T20:54:20.370Z,68.10
2022-12-18T20:56:47.688Z,60.05
2022-12-18T20:59:16.459Z,62.13
2022-12-18T21:01:47.577Z,67.80
2022-12-18T21:04:18.369Z,58.65
2022-12-18T21:06:54.162Z,62.97
2022-12-18T21:09:25.391Z,59.17
2022-12-18T21:12:13.914Z,62.05
2022-12-18T21:14:42.275Z,58.85
2022-12-18T21:17:09.428Z,57.70
2022-12-18T21:19:36.866Z,53.78
2022-12-18T21:22:04.572Z,68.95
2022-12-18T21:24:32.830Z,63.55
2022-12-18T21:27:02.099Z,65.18
2022-12-18T21:29:29.696Z,59.75
2022-12-18T21:31:57.252Z,64.68
2022-12-18T21:34:27.526Z,61.03
2022-12-18T21:36:56.446Z,65.88
2022-12-18T21:39:25.317Z,71.07
2022-12-18T21:42:12.913Z,67.60
2022-12-18T21:44:42.351Z,66.70
2022-12-18T21:47:22.216Z,61.40
2022-12-18T21:49:52.690Z,62.65
2022-12-18T21:52:24.836Z,63.38
2022-12-18T21:55:06.174Z,59.85
2022-12-18T21:57:36.879Z,58.83
2022-12-18T22:00:05.299Z,59.05
2022-12-18T22:02:39.525Z,62.42
2022-12-18T22:05:07.325Z,52.88
2022-12-18T22:07:34.951Z,61.28
2022-12-18T22:10:02.349Z,62.83
2022-12-18T22:12:41.584Z,57.50
2022-12-18T22:15:13.193Z,55.60
2022-12-18T22:17:51.209Z,56.20
2022-12-18T22:20:27.490Z,64.13
2022-12-18T22:22:54.797Z,59.35
2022-12-18T22:25:22.014Z,58.47
2022-12-18T22:28:09.199Z,58.25
2022-12-18T22:30:36.366Z,55.47
2022-12-18T22:33:04.096Z,57.17
2022-12-18T22:35:31.329Z,60.70
2022-12-18T22:38:00.237Z,54.55
2022-12-18T22:40:28.607Z,65.00
2022-12-18T22:42:56.145Z,59.45
2022-12-18T22:45:24.385Z,57.08
2022-12-18T22:47:52.053Z,54.28
2022-12-18T22:50:19.543Z,59.53
2022-12-18T22:52:46.597Z,59.85
2022-12-18T22:55:13.972Z,54.83
2022-12-18T22:57:48.836Z,57.78
2022-12-18T23:00:20.761Z,58.80
2022-12-18T23:02:59.488Z,55.47
2022-12-18T23:05:28.935Z,52.90
2022-12-18T23:07:55.936Z,63.03
2022-12-18T23:10:23.064Z,59.38
2022-12-18T23:12:50.182Z,59.80
2022-12-18T23:15:17.813Z,69.85
2022-12-18T23:17:46.888Z,58.30
2022-12-18T23:20:14.162Z,61.65
2022-12-18T23:22:41.347Z,63.05
2022-12-18T23:25:11.063Z,56.78
2022-12-18T23:27:38.151Z,58.13
2022-12-18T23:30:05.855Z,57.03
2022-12-18T23:32:33.038Z,54.63
2022-12-18T23:35:01.594Z,56.42
2022-12-18T23:37:50.245Z,53.08
2022-12-18T23:40:16.118Z,61.10
2022-12-18T23:42:43.275Z,55.78
2022-12-18T23:45:17.492Z,55.72
2022-12-18T23:47:45.251Z,62.53
2022-12-18T23:50:15.570Z,55.63
2022-12-18T23:52:42.899Z,54.78
2022-12-18T23:55:10.070Z,56.28
2022-12-18T23:57:37.101Z,60.35
